sensor_id;sensor_type;location;lat;lon;timestamp;temperature;humidity
28069;DHT22;15382;47.578;8.086;2023-04-01T00:00:05;7.10;99.90
28069;DHT22;15382;47.578;8.086;2023-04-01T00:10:13;6.90;99.90
28069;DHT22;15382;47.578;8.086;2023-04-01T00:20:14;6.80;99.90
28069;DHT22;15382;47.578;8.086;2023-04-01T00:30:15;6.60;99.90
28069;DHT22;15382;47.578;8.086;2023-04-01T00:40:44;6.60;99.90
28069;DHT22;15382;47.578;8.086;2023-04-01T00:51:21;6.60;99.90
28069;DHT22;15382;47.578;8.086;2023-04-01T01:01:14;6.60;99.90
28069;DHT22;15382;47.578;8.086;2023-04-01T01:11:23;6.70;99.90
28069;DHT22;15382;47.578;8.086;2023-04-01T01:31:55;6.60;99.90
28069;DHT22;15382;47.578;8.086;2023-04-01T01:41:51;6.70;99.90
28069;DHT22;15382;47.578;8.086;2023-04-01T01:51:52;6.70;99.90
28069;DHT22;15382;47.578;8.086;2023-04-01T02:01:55;6.70;99.90
28069;DHT22;15382;47.578;8.086;2023-04-01T02:12:07;6.60;99.90
28069;DHT22;15382;47.578;8.086;2023-04-01T02:22:16;6.70;99.90
28069;DHT22;15382;47.578;8.086;2023-04-01T02:32:19;6.80;99.90
28069;DHT22;15382;47.578;8.086;2023-04-01T02:42:20;6.90;99.90
28069;DHT22;15382;47.578;8.086;2023-04-01T02:52:21;7.10;99.90
28069;DHT22;15382;47.578;8.086;2023-04-01T03:02:22;7.20;99.90
28069;DHT22;15382;47.578;8.086;2023-04-01T03:12:23;7.30;99.90
28069;DHT22;15382;47.578;8.086;2023-04-01T03:22:29;7.30;99.90
28069;DHT22;15382;47.578;8.086;2023-04-01T03:32:29;7.40;99.90
28069;DHT22;15382;47.578;8.086;2023-04-01T03:42:31;7.40;99.90
28069;DHT22;15382;47.578;8.086;2023-04-01T03:52:33;7.30;99.90
28069;DHT22;15382;47.578;8.086;2023-04-01T04:02:34;7.00;99.90
28069;DHT22;15382;47.578;8.086;2023-04-01T04:12:36;6.80;99.90
28069;DHT22;15382;47.578;8.086;2023-04-01T04:22:36;6.80;99.90
28069;DHT22;15382;47.578;8.086;2023-04-01T04:32:40;6.80;99.90
28069;DHT22;15382;47.578;8.086;2023-04-01T04:42:42;6.70;99.90
28069;DHT22;15382;47.578;8.086;2023-04-01T04:52:50;6.70;99.90
28069;DHT22;15382;47.578;8.086;2023-04-01T05:13:17;6.80;99.90
28069;DHT22;15382;47.578;8.086;2023-04-01T05:23:23;6.90;99.90
28069;DHT22;15382;47.578;8.086;2023-04-01T05:33:23;6.90;99.90
28069;DHT22;15382;47.578;8.086;2023-04-01T05:43:24;7.00;99.90
28069;DHT22;15382;47.578;8.086;2023-04-01T05:53:27;7.20;99.90
28069;DHT22;15382;47.578;8.086;2023-04-01T06:03:28;7.10;99.90
28069;DHT22;15382;47.578;8.086;2023-04-01T06:13:38;7.20;99.90
28069;DHT22;15382;47.578;8.086;2023-04-01T06:24:02;7.30;99.90
28069;DHT22;15382;47.578;8.086;2023-04-01T07:05:40;7.30;99.90
28069;DHT22;15382;47.578;8.086;2023-04-01T07:15:49;7.30;99.90
28069;DHT22;15382;47.578;8.086;2023-04-01T07:25:56;7.30;99.90
28069;DHT22;15382;47.578;8.086;2023-04-01T07:36:15;7.30;99.90
28069;DHT22;15382;47.578;8.086;2023-04-01T08:07:12;7.50;99.90
28069;DHT22;15382;47.578;8.086;2023-04-01T08:17:43;7.40;99.90
28069;DHT22;15382;47.578;8.086;2023-04-01T08:27:53;7.40;99.90
28069;DHT22;15382;47.578;8.086;2023-04-01T08:38:00;7.40;99.90
28069;DHT22;15382;47.578;8.086;2023-04-01T09:19:25;7.50;99.90
28069;DHT22;15382;47.578;8.086;2023-04-01T09:39:48;7.70;99.90
28069;DHT22;15382;47.578;8.086;2023-04-01T10:10:54;8.10;99.90
28069;DHT22;15382;47.578;8.086;2023-04-01T10:21:21;7.90;99.90
28069;DHT22;15382;47.578;8.086;2023-04-01T11:55:46;8.50;99.90
28069;DHT22;15382;47.578;8.086;2023-04-01T12:16:28;9.10;99.90
28069;DHT22;15382;47.578;8.086;2023-04-01T12:26:59;9.70;99.90
28069;DHT22;15382;47.578;8.086;2023-04-01T12:37:35;9.60;99.90
28069;DHT22;15382;47.578;8.086;2023-04-01T13:08:24;10.10;99.90
28069;DHT22;15382;47.578;8.086;2023-04-01T13:18:52;10.30;99.90
28069;DHT22;15382;47.578;8.086;2023-04-01T13:29:14;10.80;99.90
28069;DHT22;15382;47.578;8.086;2023-04-01T13:59:59;10.20;99.90
28069;DHT22;15382;47.578;8.086;2023-04-01T14:51:47;10.90;99.90
28069;DHT22;15382;47.578;8.086;2023-04-01T16:35:01;10.20;99.90
28069;DHT22;15382;47.578;8.086;2023-04-01T16:55:18;9.70;99.90
28069;DHT22;15382;47.578;8.086;2023-04-01T17:05:21;9.60;99.90
28069;DHT22;15382;47.578;8.086;2023-04-01T17:26:32;9.50;99.90
28069;DHT22;15382;47.578;8.086;2023-04-01T17:46:58;9.20;99.90
28069;DHT22;15382;47.578;8.086;2023-04-01T18:28:36;8.50;99.90
28069;DHT22;15382;47.578;8.086;2023-04-01T18:38:44;8.40;99.90
28069;DHT22;15382;47.578;8.086;2023-04-01T18:49:05;8.20;99.90
28069;DHT22;15382;47.578;8.086;2023-04-01T18:59:12;8.00;99.90
28069;DHT22;15382;47.578;8.086;2023-04-01T19:09:43;8.00;99.90
28069;DHT22;15382;47.578;8.086;2023-04-01T19:50:50;7.70;99.90
28069;DHT22;15382;47.578;8.086;2023-04-01T20:00:57;7.60;99.90
28069;DHT22;15382;47.578;8.086;2023-04-01T20:11:12;7.40;99.90
28069;DHT22;15382;47.578;8.086;2023-04-01T20:41:41;6.10;99.90
28069;DHT22;15382;47.578;8.086;2023-04-01T20:51:53;6.10;99.90
28069;DHT22;15382;47.578;8.086;2023-04-01T22:03:59;5.40;99.90
28069;DHT22;15382;47.578;8.086;2023-04-01T22:14:37;6.00;99.90
28069;DHT22;15382;47.578;8.086;2023-04-01T22:25:28;5.90;99.90
28069;DHT22;15382;47.578;8.086;2023-04-01T22:35:23;5.90;99.90
28069;DHT22;15382;47.578;8.086;2023-04-01T22:45:33;6.00;99.90
28069;DHT22;15382;47.578;8.086;2023-04-01T22:55:40;6.10;99.90
28069;DHT22;15382;47.578;8.086;2023-04-01T23:05:52;6.20;99.90
28069;DHT22;15382;47.578;8.086;2023-04-01T23:15:54;6.30;99.90
28069;DHT22;15382;47.578;8.086;2023-04-01T23:36:12;6.20;99.90
28069;DHT22;15382;47.578;8.086;2023-04-01T23:46:14;6.10;99.90
28069;DHT22;15382;47.578;8.086;2023-04-01T23:56:18;5.90;99.90
